Time;durP1;ratioP1;P1;durP2;ratioP2;P2;SDS_P1;SDS_P2;PMS_P1;PMS_P2;Temp;Humidity;BMP_temperature;BMP_pressure;BME280_temperature;BME280_humidity;BME280_pressure;Samples;Min_cycle;Max_cycle;Signal;HPM_P1;HPM_P2
2023/11/09 00:01:05;;;;;;;2.47;1.65;;;;;;;7.37;100.00;97849.38;6100363;19;20014;-73
2023/11/09 00:03:05;;;;;;;1.80;1.45;;;;;;;7.35;100.00;97851.69;6098840;19;20336;-73
2023/11/09 00:05:07;;;;;;;2.22;1.50;;;;;;;7.39;100.00;97847.81;6099470;19;20459;-73
2023/11/09 00:07:08;;;;;;;3.17;1.52;;;;;;;7.42;100.00;97843.53;6099976;19;20010;-74
2023/11/09 00:09:09;;;;;;;3.15;1.60;;;;;;;7.44;100.00;97852.97;6098860;19;20010;-74
2023/11/09 00:11:10;;;;;;;3.38;1.58;;;;;;;7.43;100.00;97836.84;6101182;19;20023;-73
2023/11/09 00:13:10;;;;;;;3.03;1.63;;;;;;;7.36;100.00;97843.03;6099744;19;20784;-73
2023/11/09 00:15:10;;;;;;;2.60;1.80;;;;;;;7.33;100.00;97828.09;6099812;19;20012;-73
2023/11/09 00:17:11;;;;;;;3.45;1.77;;;;;;;7.30;100.00;97823.34;6100881;19;20006;-74
2023/11/09 00:19:13;;;;;;;2.95;1.70;;;;;;;7.37;100.00;97811.63;6101321;19;20002;-73
2023/11/09 00:21:13;;;;;;;4.35;2.00;;;;;;;7.38;100.00;97820.69;6100352;19;20007;-73
2023/11/09 00:23:19;;;;;;;3.35;1.92;;;;;;;7.32;100.00;97815.50;6100818;19;20403;-73
2023/11/09 00:25:22;;;;;;;2.83;1.98;;;;;;;7.31;100.00;97813.91;6098925;19;20007;-73
2023/11/09 00:27:22;;;;;;;3.45;2.10;;;;;;;7.37;100.00;97802.59;6097469;19;20067;-73
2023/11/09 00:29:23;;;;;;;2.50;1.60;;;;;;;7.32;100.00;97807.22;6101078;19;20378;-73
2023/11/09 00:31:23;;;;;;;7.75;1.92;;;;;;;7.33;100.00;97808.03;6101068;19;20007;-73
2023/11/09 00:33:24;;;;;;;2.10;1.70;;;;;;;7.34;100.00;97812.34;6099616;19;20096;-73
2023/11/09 00:35:24;;;;;;;3.55;1.88;;;;;;;7.33;100.00;97828.09;6099241;19;20427;-74
2023/11/09 00:37:28;;;;;;;3.38;1.88;;;;;;;7.41;100.00;97825.44;6100565;19;20415;-73
2023/11/09 00:39:30;;;;;;;4.85;2.08;;;;;;;7.38;100.00;97815.19;6097529;19;20094;-73
2023/11/09 00:41:30;;;;;;;3.78;1.90;;;;;;;7.31;100.00;97813.91;6105117;19;20649;-74
2023/11/09 00:43:32;;;;;;;2.45;1.75;;;;;;;7.40;100.00;97810.88;6106137;19;20024;-73
2023/11/09 00:45:34;;;;;;;2.50;1.70;;;;;;;7.35;100.00;97813.94;6104416;19;20013;-73
2023/11/09 00:47:35;;;;;;;1.90;1.50;;;;;;;7.29;100.00;97808.00;6105651;19;20504;-73
2023/11/09 00:49:35;;;;;;;2.58;1.50;;;;;;;7.24;100.00;97796.50;6105892;19;20015;-73
2023/11/09 00:51:36;;;;;;;4.13;1.65;;;;;;;7.21;100.00;97787.03;6106021;19;20538;-74
2023/11/09 00:53:37;;;;;;;2.90;1.58;;;;;;;7.22;100.00;97787.84;6105039;19;20006;-73
2023/11/09 00:55:37;;;;;;;1.95;1.60;;;;;;;7.25;100.00;97785.13;6103485;19;20010;-73
2023/11/09 00:57:38;;;;;;;2.33;1.48;;;;;;;7.21;100.00;97780.75;6105634;19;20013;-73
2023/11/09 00:59:39;;;;;;;10.35;2.92;;;;;;;7.20;100.00;97779.97;6103056;19;20014;-73
2023/11/09 01:01:40;;;;;;;8.15;2.08;;;;;;;7.18;100.00;97768.50;6104622;19;20549;-73
2023/11/09 01:03:40;;;;;;;3.42;1.33;;;;;;;7.21;100.00;97772.50;6104474;19;20014;-73
2023/11/09 01:05:40;;;;;;;18.17;2.40;;;;;;;7.34;100.00;97765.59;6104659;19;20009;-73
2023/11/09 01:07:41;;;;;;;27.98;4.60;;;;;;;7.23;100.00;97762.69;6104871;19;20007;-73
2023/11/09 01:09:42;;;;;;;9.13;2.38;;;;;;;7.22;100.00;97754.81;6105241;19;20006;-73
2023/11/09 01:11:42;;;;;;;8.07;3.53;;;;;;;7.20;100.00;97759.88;6104879;19;20003;-73
2023/11/09 01:13:42;;;;;;;6.22;1.92;;;;;;;7.22;100.00;97755.63;6104875;19;20011;-73
2023/11/09 01:15:43;;;;;;;2.35;1.55;;;;;;;7.28;100.00;97748.63;6104244;19;20518;-73
2023/11/09 01:18:03;;;;;;;3.47;1.63;;;;;;;7.26;100.00;97739.94;6105761;19;20010;-74
2023/11/09 01:20:08;;;;;;;2.15;1.40;;;;;;;7.30;100.00;97740.78;6104431;19;20463;-74
2023/11/09 01:22:09;;;;;;;2.10;1.50;;;;;;;7.31;100.00;97736.06;6103900;19;20020;-73
2023/11/09 01:24:09;;;;;;;3.47;1.48;;;;;;;7.29;100.00;97719.94;6102952;19;20449;-73
2023/11/09 01:26:09;;;;;;;2.40;1.55;;;;;;;7.24;100.00;97719.47;6102841;19;20083;-73
2023/11/09 01:28:11;;;;;;;3.90;1.45;;;;;;;7.13;100.00;97716.59;6105156;19;20361;-73
2023/11/09 01:30:16;;;;;;;2.53;1.80;;;;;;;7.09;100.00;97718.50;6104150;19;20335;-73
2023/11/09 01:32:18;;;;;;;1.77;1.50;;;;;;;7.04;100.00;97718.84;6102871;19;19995;-73
2023/11/09 01:34:18;;;;;;;3.63;1.50;;;;;;;6.99;100.00;97716.41;6103467;19;20007;-73
2023/11/09 01:36:19;;;;;;;2.90;1.45;;;;;;;7.03;100.00;97712.53;6104067;19;20027;-73
2023/11/09 01:38:19;;;;;;;2.13;1.30;;;;;;;7.04;100.00;97707.84;6104241;19;20358;-73
2023/11/09 01:40:23;;;;;;;1.90;1.33;;;;;;;7.09;100.00;97714.94;6102368;19;20320;-74
2023/11/09 01:42:24;;;;;;;2.42;1.40;;;;;;;7.08;100.00;97702.38;6104766;19;20466;-73
2023/11/09 01:44:24;;;;;;;2.38;1.30;;;;;;;7.01;100.00;97705.81;6104218;19;20010;-73
2023/11/09 01:46:26;;;;;;;2.22;1.30;;;;;;;7.02;100.00;97705.44;6103747;19;20002;-73
2023/11/09 01:48:27;;;;;;;2.47;1.50;;;;;;;7.02;100.00;97697.19;6104526;19;20402;-73
2023/11/09 01:50:29;;;;;;;3.80;1.20;;;;;;;7.06;100.00;97696.44;6104227;19;20235;-73
2023/11/09 01:52:30;;;;;;;3.72;1.58;;;;;;;7.06;100.00;97700.00;6101189;19;20398;-73
2023/11/09 01:54:31;;;;;;;2.33;1.27;;;;;;;7.09;100.00;97706.69;6103512;19;20010;-73
2023/11/09 01:56:32;;;;;;;1.98;1.40;;;;;;;7.05;100.00;97701.16;6102337;19;20011;-74
2023/11/09 01:58:34;;;;;;;3.83;1.27;;;;;;;7.04;100.00;97696.81;6104786;19;20451;-74
2023/11/09 02:00:34;;;;;;;2.42;1.30;;;;;;;7.05;100.00;97706.66;6104055;19;20014;-73
2023/11/09 02:02:35;;;;;;;3.08;1.48;;;;;;;7.03;100.00;97698.78;6102877;19;20026;-73
2023/11/09 02:04:35;;;;;;;2.67;1.60;;;;;;;7.01;100.00;97700.31;6104042;19;20527;-73
2023/11/09 02:06:36;;;;;;;4.10;2.22;;;;;;;6.96;100.00;97697.91;6102088;19;20006;-73
2023/11/09 02:08:37;;;;;;;3.22;1.48;;;;;;;6.97;100.00;97702.22;6103368;19;20015;-73
2023/11/09 02:10:37;;;;;;;2.00;1.40;;;;;;;7.01;100.00;97701.09;6103903;19;20010;-73
2023/11/09 02:12:38;;;;;;;4.38;1.67;;;;;;;7.06;100.00;97693.69;6103573;19;20467;-73
2023/11/09 02:14:38;;;;;;;2.50;1.60;;;;;;;7.10;100.00;97683.53;6103390;19;20511;-73
2023/11/09 02:16:39;;;;;;;3.08;1.67;;;;;;;7.12;100.00;97681.22;6101956;19;20023;-73
2023/11/09 02:18:39;;;;;;;2.50;1.70;;;;;;;7.14;100.00;97687.13;6103770;19;20026;-73
2023/11/09 02:20:40;;;;;;;4.38;1.73;;;;;;;7.09;100.00;97685.47;6103481;19;20029;-73
2023/11/09 02:22:43;;;;;;;2.80;1.70;;;;;;;7.11;100.00;97694.16;6102872;19;20533;-73
2023/11/09 02:24:47;;;;;;;3.50;1.98;;;;;;;7.06;100.00;97691.75;6103945;19;20537;-73
2023/11/09 02:26:48;;;;;;;3.28;1.90;;;;;;;7.06;100.00;97677.97;6103833;19;20006;-73
2023/11/09 02:28:52;;;;;;;3.63;2.10;;;;;;;7.03;100.00;97679.53;6095572;19;20239;-74
2023/11/09 02:30:53;;;;;;;4.18;2.65;;;;;;;7.06;100.00;97672.47;6103971;19;20023;-73
2023/11/09 02:32:53;;;;;;;3.53;2.60;;;;;;;7.07;100.00;97678.78;6100997;19;20006;-73
2023/11/09 02:34:53;;;;;;;3.15;1.95;;;;;;;7.08;100.00;97670.16;6103954;19;20236;-73
2023/11/09 02:36:54;;;;;;;2.95;2.22;;;;;;;7.09;100.00;97668.19;6102337;19;20018;-73
2023/11/09 02:38:55;;;;;;;5.82;2.03;;;;;;;7.09;100.00;97660.72;6102722;19;20003;-73
2023/11/09 02:40:56;;;;;;;3.85;2.47;;;;;;;7.04;100.00;97661.06;6101277;19;20018;-73
2023/11/09 02:42:56;;;;;;;2.92;2.13;;;;;;;7.04;100.00;97666.56;6103287;19;20040;-73
2023/11/09 02:44:57;;;;;;;2.85;2.28;;;;;;;7.03;100.00;97651.22;6103113;19;20007;-73
2023/11/09 02:46:58;;;;;;;4.32;2.45;;;;;;;7.10;100.00;97648.56;6101120;19;20006;-73
2023/11/09 02:48:58;;;;;;;4.13;2.30;;;;;;;7.12;100.00;97654.50;6104271;19;20233;-73
2023/11/09 02:50:58;;;;;;;3.78;2.10;;;;;;;7.09;100.00;97633.22;6103303;19;20030;-73
2023/11/09 02:52:59;;;;;;;4.28;2.33;;;;;;;7.11;100.00;97638.34;6102350;19;20011;-74
2023/11/09 02:55:00;;;;;;;5.32;2.30;;;;;;;7.09;100.00;97638.72;6102605;19;20031;-73
2023/11/09 02:57:00;;;;;;;2.92;2.38;;;;;;;7.15;100.00;97628.97;6103720;19;20525;-73
2023/11/09 02:59:01;;;;;;;3.58;2.45;;;;;;;7.24;100.00;97632.22;6102809;19;20029;-73
2023/11/09 03:01:01;;;;;;;4.18;2.10;;;;;;;7.17;100.00;97642.34;6103466;19;20284;-73
2023/11/09 03:03:03;;;;;;;5.60;2.40;;;;;;;7.22;100.00;97629.06;6101413;19;20378;-73
2023/11/09 03:05:04;;;;;;;4.85;2.58;;;;;;;7.14;100.00;97619.13;6102124;19;20011;-73
2023/11/09 03:07:07;;;;;;;4.78;2.00;;;;;;;7.10;100.00;97623.78;6101510;19;20388;-73
2023/11/09 03:09:08;;;;;;;2.60;2.03;;;;;;;7.10;100.00;97623.78;6103303;19;20585;-73
2023/11/09 03:11:09;;;;;;;3.70;2.38;;;;;;;7.15;100.00;97622.69;6102690;19;20010;-73
2023/11/09 03:13:11;;;;;;;3.55;2.60;;;;;;;7.09;100.00;97619.47;6101762;19;20002;-73
2023/11/09 03:15:11;;;;;;;5.13;2.38;;;;;;;7.12;100.00;97615.97;6100255;19;20010;-73
2023/11/09 03:17:12;;;;;;;3.67;2.33;;;;;;;7.14;100.00;97619.13;6102086;19;20087;-73
2023/11/09 03:19:12;;;;;;;3.17;2.20;;;;;;;7.09;100.00;97602.97;6102063;19;20082;-73
2023/11/09 03:21:12;;;;;;;5.63;2.38;;;;;;;7.06;100.00;97606.47;6101676;19;20010;-73
2023/11/09 03:23:13;;;;;;;4.35;2.60;;;;;;;7.06;100.00;97598.22;6101353;19;20860;-73
2023/11/09 03:25:13;;;;;;;4.57;2.75;;;;;;;7.02;100.00;97578.13;6101514;19;20484;-73
2023/11/09 03:27:13;;;;;;;4.57;2.67;;;;;;;7.03;100.00;97586.03;6102028;19;20476;-73
2023/11/09 03:29:14;;;;;;;3.28;2.38;;;;;;;7.03;100.00;97585.19;6095955;19;20329;-73
2023/11/09 03:31:14;;;;;;;4.60;3.35;;;;;;;7.04;100.00;97582.09;6095746;19;20228;-73
2023/11/09 03:33:14;;;;;;;3.33;2.38;;;;;;;7.12;100.00;97573.94;6094756;19;20003;-73
2023/11/09 03:35:15;;;;;;;3.22;2.25;;;;;;;7.13;100.00;97572.75;6094011;19;20524;-73
2023/11/09 03:37:15;;;;;;;3.80;2.40;;;;;;;7.14;100.00;97564.13;6096052;19;20462;-73
2023/11/09 03:39:16;;;;;;;3.90;2.30;;;;;;;7.04;100.00;97573.06;6093180;19;20006;-73
2023/11/09 03:41:16;;;;;;;3.80;2.03;;;;;;;6.96;100.00;97574.16;6095119;19;20733;-73
2023/11/09 03:43:16;;;;;;;3.72;2.28;;;;;;;6.97;100.00;97567.47;6094310;19;20244;-73
2023/11/09 03:45:17;;;;;;;3.97;2.50;;;;;;;7.04;100.00;97568.34;6094229;19;20011;-73
2023/11/09 03:47:17;;;;;;;4.13;2.53;;;;;;;7.03;100.00;97561.28;6095949;19;20042;-73
2023/11/09 03:49:20;;;;;;;2.75;2.10;;;;;;;7.02;100.00;97576.16;6094973;19;20012;-73
2023/11/09 03:51:20;;;;;;;;;;;;;;;7.00;100.00;97573.00;6095189;19;20011;-73
2023/11/09 03:53:20;;;;;;;3.40;2.20;;;;;;;7.00;100.00;97567.50;6095344;19;19970;-74
2023/11/09 03:55:21;;;;;;;3.08;2.30;;;;;;;6.99;100.00;97560.41;6092870;19;20043;-73
2023/11/09 03:57:21;;;;;;;3.58;2.42;;;;;;;6.90;100.00;97554.44;6094717;19;20007;-73
2023/11/09 03:59:21;;;;;;;4.93;2.53;;;;;;;6.92;100.00;97563.09;6095122;19;20361;-73
2023/11/09 04:01:22;;;;;;;4.53;2.28;;;;;;;6.93;100.00;97558.38;6094612;19;20322;-73
2023/11/09 04:03:23;;;;;;;3.63;2.00;;;;;;;6.86;100.00;97550.84;6093838;19;20011;-73
2023/11/09 04:05:23;;;;;;;4.97;2.10;;;;;;;6.88;100.00;97548.53;6093595;19;20416;-73
2023/11/09 04:07:24;;;;;;;2.30;1.80;;;;;;;6.92;100.00;97545.81;6094353;19;20002;-73
2023/11/09 04:09:24;;;;;;;2.60;1.95;;;;;;;6.94;100.00;97555.25;6094285;19;20663;-73
2023/11/09 04:11:27;;;;;;;3.17;2.10;;;;;;;6.90;100.00;97551.69;6094454;19;20009;-73
2023/11/09 04:13:28;;;;;;;3.25;2.00;;;;;;;6.95;100.00;97551.34;6094033;19;20514;-73
2023/11/09 04:15:28;;;;;;;4.07;1.92;;;;;;;6.92;100.00;97532.84;6090229;19;19999;-73
2023/11/09 04:17:28;;;;;;;3.55;2.03;;;;;;;6.91;100.00;97552.47;6093985;19;20013;-73
2023/11/09 04:19:29;;;;;;;3.58;1.90;;;;;;;6.90;100.00;97545.41;6093833;19;20006;-73
2023/11/09 04:21:29;;;;;;;2.25;1.80;;;;;;;6.92;100.00;97530.09;6093729;19;20002;-73
2023/11/09 04:23:30;;;;;;;2.38;1.80;;;;;;;6.96;100.00;97527.41;6093571;19;19999;-73
2023/11/09 04:25:30;;;;;;;3.30;1.83;;;;;;;6.94;100.00;97518.72;6093015;19;20347;-73
2023/11/09 04:27:34;;;;;;;2.70;1.90;;;;;;;6.95;100.00;97509.28;6093299;19;20428;-73
2023/11/09 04:29:34;;;;;;;6.05;2.65;;;;;;;6.90;100.00;97495.91;6100598;19;20372;-73
2023/11/09 04:31:36;;;;;;;2.75;2.05;;;;;;;6.88;100.00;97504.53;6100106;19;20023;-73
2023/11/09 04:33:37;;;;;;;2.33;1.60;;;;;;;6.82;100.00;97497.78;6099887;19;20446;-73
2023/11/09 04:35:41;;;;;;;2.63;1.73;;;;;;;6.79;100.00;97495.00;6098437;19;20430;-73
2023/11/09 04:37:41;;;;;;;3.22;1.95;;;;;;;6.75;100.00;97486.72;6099884;19;20010;-73
2023/11/09 04:39:46;;;;;;;4.97;1.90;;;;;;;6.79;100.00;97489.50;6098780;19;20010;-73
2023/11/09 04:41:47;;;;;;;3.60;1.60;;;;;;;6.74;100.00;97476.88;6100123;19;20379;-73
2023/11/09 04:43:51;;;;;;;2.22;1.70;;;;;;;6.77;100.00;97476.13;6100604;19;20006;-73
2023/11/09 04:45:53;;;;;;;3.47;2.13;;;;;;;6.81;100.00;97468.72;6096547;19;20015;-73
2023/11/09 04:47:58;;;;;;;2.50;1.70;;;;;;;6.82;100.00;97464.78;6099467;19;20491;-74
2023/11/09 04:50:00;;;;;;;3.90;1.80;;;;;;;6.94;100.00;97472.75;6099218;19;20125;-73
2023/11/09 04:52:04;;;;;;;2.88;1.63;;;;;;;6.94;100.00;97469.22;6099167;19;21035;-73
2023/11/09 04:54:16;;;;;;;2.42;1.80;;;;;;;6.96;100.00;97461.41;6099871;19;20552;-73
2023/11/09 04:58:48;;;;;;;2.30;1.55;;;;;;;7.04;100.00;97455.59;6095319;19;20007;-73
2023/11/09 05:07:49;;;;;;;4.05;2.00;;;;;;;7.12;100.00;97470.19;6099457;19;20017;-73
2023/11/09 05:09:50;;;;;;;2.40;1.83;;;;;;;7.05;100.00;97467.38;6099916;19;20014;-73
2023/11/09 05:11:51;;;;;;;2.17;1.83;;;;;;;7.01;100.00;97456.31;6098176;19;20017;-73
2023/11/09 05:13:51;;;;;;;3.70;2.13;;;;;;;7.04;100.00;97455.59;6097586;19;19998;-73
2023/11/09 05:15:53;;;;;;;3.97;1.88;;;;;;;7.03;100.00;97451.25;6097366;19;20058;-73
2023/11/09 05:17:53;;;;;;;4.82;2.13;;;;;;;7.07;100.00;97459.53;6097485;19;20505;-73
2023/11/09 05:19:56;;;;;;;3.35;1.85;;;;;;;6.99;100.00;97461.41;6098123;19;20093;-73
2023/11/09 05:21:57;;;;;;;3.10;2.13;;;;;;;6.99;100.00;97461.41;6098426;19;20007;-73
2023/11/09 05:23:57;;;;;;;3.10;2.13;;;;;;;6.98;100.00;97459.06;6097820;19;20027;-73
2023/11/09 05:25:58;;;;;;;3.10;1.98;;;;;;;6.99;100.00;97461.41;6097974;19;20015;-73
2023/11/09 05:27:58;;;;;;;2.90;2.22;;;;;;;7.01;100.00;97469.28;6104603;19;20010;-73
2023/11/09 05:29:59;;;;;;;3.03;1.70;;;;;;;6.99;100.00;97460.63;6104233;19;20551;-73
2023/11/09 05:32:06;;;;;;;2.90;2.03;;;;;;;7.03;100.00;97459.50;6103745;19;20010;-73
2023/11/09 05:34:06;;;;;;;3.95;2.00;;;;;;;7.05;100.00;97453.63;6103090;19;20374;-73
2023/11/09 05:36:07;;;;;;;2.72;1.90;;;;;;;7.07;100.00;97454.03;6099976;19;20002;-73
2023/11/09 05:38:10;;;;;;;4.20;2.33;;;;;;;7.07;100.00;97451.28;6102627;19;20010;-73
2023/11/09 05:40:10;;;;;;;8.07;2.67;;;;;;;7.10;100.00;97464.25;6102522;19;20002;-73
2023/11/09 05:42:11;;;;;;;6.30;3.22;;;;;;;7.02;100.00;97457.91;6102919;19;19998;-73
2023/11/09 05:44:11;;;;;;;5.13;2.70;;;;;;;7.02;100.00;97452.41;6101156;19;20023;-73
2023/11/09 05:46:11;;;;;;;12.15;3.85;;;;;;;7.01;100.00;97448.06;6103037;19;20006;-73
2023/11/09 05:48:12;;;;;;;3.90;2.30;;;;;;;6.99;100.00;97444.91;6102812;19;20522;-73
2023/11/09 05:50:13;;;;;;;4.40;2.08;;;;;;;6.95;100.00;97437.78;6102301;19;20476;-73
2023/11/09 05:52:16;;;;;;;4.18;2.13;;;;;;;6.94;100.00;97433.47;6102529;19;20011;-73
2023/11/09 05:54:17;;;;;;;3.10;1.90;;;;;;;6.95;100.00;97432.28;6103971;19;20007;-73
2023/11/09 05:56:18;;;;;;;2.67;1.73;;;;;;;6.94;100.00;97430.72;6102916;19;20010;-73
2023/11/09 05:58:18;;;;;;;2.35;1.60;;;;;;;6.83;100.00;97425.13;6103090;19;20027;-73
2023/11/09 06:00:19;;;;;;;2.47;1.63;;;;;;;6.78;100.00;97425.47;6098562;19;20016;-73
2023/11/09 06:02:19;;;;;;;3.42;1.88;;;;;;;6.79;100.00;97434.53;6100632;19;20026;-73
2023/11/09 06:04:19;;;;;;;2.88;2.13;;;;;;;6.81;100.00;97429.44;6103608;19;20458;-73
2023/11/09 06:06:20;;;;;;;5.88;1.80;;;;;;;6.82;100.00;97433.75;6102010;19;20001;-73
2023/11/09 06:08:20;;;;;;;4.20;2.40;;;;;;;6.88;100.00;97427.53;6102350;19;20036;-73
2023/11/09 06:10:20;;;;;;;2.65;1.60;;;;;;;6.93;100.00;97420.88;6103402;19;20362;-73
2023/11/09 06:12:21;;;;;;;2.08;1.60;;;;;;;6.93;100.00;97427.19;6103289;19;20031;-73
2023/11/09 06:14:21;;;;;;;6.25;2.08;;;;;;;6.95;100.00;97435.88;6104436;19;20042;-73
2023/11/09 06:16:22;;;;;;;2.22;1.50;;;;;;;6.98;100.00;97420.56;6102725;19;20007;-73
2023/11/09 06:18:23;;;;;;;3.10;1.80;;;;;;;6.97;100.00;97429.97;6103850;19;20011;-73
2023/11/09 06:20:24;;;;;;;2.75;1.77;;;;;;;6.90;100.00;97416.16;6103519;19;20015;-73
2023/11/09 06:22:24;;;;;;;2.28;1.40;;;;;;;6.88;100.00;97416.53;6103647;19;20402;-73
2023/11/09 06:24:25;;;;;;;2.53;1.45;;;;;;;6.86;100.00;97412.56;6103733;19;20451;-73
2023/11/09 06:26:25;;;;;;;3.83;1.98;;;;;;;6.88;100.00;97410.25;6101958;19;20013;-73
2023/11/09 06:28:25;;;;;;;4.65;1.80;;;;;;;6.92;100.00;97420.09;6103930;19;20611;-73
2023/11/09 06:30:27;;;;;;;3.60;1.90;;;;;;;6.92;100.00;97409.09;6097424;19;20014;-73
2023/11/09 06:32:27;;;;;;;3.80;1.50;;;;;;;6.91;100.00;97404.00;6095147;19;20023;-73
2023/11/09 06:34:28;;;;;;;2.47;1.70;;;;;;;7.00;100.00;97393.44;6098747;19;20014;-73
2023/11/09 06:36:28;;;;;;;3.28;2.05;;;;;;;6.95;100.00;97394.63;6098239;19;20019;-73
2023/11/09 06:38:29;;;;;;;3.75;1.60;;;;;;;6.94;100.00;97390.25;6098989;19;20454;-73
2023/11/09 06:40:31;;;;;;;2.28;1.52;;;;;;;7.02;100.00;97391.09;6100066;19;20011;-73
2023/11/09 06:42:32;;;;;;;5.70;1.42;;;;;;;7.00;100.00;97377.75;6101199;19;20006;-73
2023/11/09 06:44:32;;;;;;;5.38;1.63;;;;;;;7.04;100.00;97386.81;6099859;19;20326;-73
2023/11/09 06:46:32;;;;;;;2.10;1.50;;;;;;;7.05;100.00;97393.13;6099812;19;20026;-73
2023/11/09 06:48:33;;;;;;;2.78;1.50;;;;;;;7.08;100.00;97383.31;6102073;19;20006;-73
2023/11/09 06:50:34;;;;;;;2.78;1.67;;;;;;;7.15;100.00;97395.16;6103463;19;20013;-73
2023/11/09 06:52:34;;;;;;;5.10;1.35;;;;;;;7.21;100.00;97399.13;6102576;19;20038;-73
2023/11/09 06:54:35;;;;;;;2.35;1.42;;;;;;;7.33;100.00;97396.06;6102938;19;20455;-73
2023/11/09 06:56:37;;;;;;;2.65;1.58;;;;;;;7.35;100.00;97401.19;6101726;19;20006;-73
2023/11/09 06:58:37;;;;;;;1.50;1.40;;;;;;;7.37;100.00;97409.06;6101989;19;20007;-73
2023/11/09 07:00:38;;;;;;;1.73;1.20;;;;;;;7.32;100.00;97413.75;6102884;19;20087;-73
2023/11/09 07:02:40;;;;;;;2.30;1.33;;;;;;;7.30;100.00;97415.31;6102393;19;20015;-73
2023/11/09 07:04:41;;;;;;;2.13;1.50;;;;;;;7.26;100.00;97414.47;6103046;19;20558;-73
2023/11/09 07:06:43;;;;;;;2.45;1.50;;;;;;;7.25;100.00;97412.91;6101294;19;20077;-73
2023/11/09 07:08:43;;;;;;;4.45;1.48;;;;;;;7.25;100.00;97408.19;6102049;19;20017;-73
2023/11/09 07:10:43;;;;;;;1.98;1.20;;;;;;;7.30;100.00;97416.09;6103103;19;20546;-73
2023/11/09 07:12:44;;;;;;;3.95;1.38;;;;;;;7.31;100.00;97412.16;6102054;19;20003;-73
2023/11/09 07:14:45;;;;;;;3.35;1.20;;;;;;;7.35;100.00;97408.66;6102421;19;20010;-73
2023/11/09 07:16:46;;;;;;;3.33;1.40;;;;;;;7.37;100.00;97406.31;6101674;19;20006;-73
2023/11/09 07:18:46;;;;;;;1.45;1.15;;;;;;;7.43;100.00;97402.81;6102176;19;20328;-73
2023/11/09 07:20:46;;;;;;;2.17;1.33;;;;;;;7.36;100.00;97393.72;6102732;19;20490;-73
2023/11/09 07:22:50;;;;;;;1.73;1.33;;;;;;;7.41;100.00;97404.38;6101817;19;20003;-73
2023/11/09 07:24:52;;;;;;;2.75;1.52;;;;;;;7.41;100.00;97398.88;6103033;19;20010;-73
2023/11/09 07:26:53;;;;;;;1.20;1.10;;;;;;;7.41;100.00;97398.88;6102147;19;20013;-73
2023/11/09 07:28:53;;;;;;;3.90;1.20;;;;;;;7.39;100.00;97391.00;6093160;19;20070;-74
2023/11/09 07:30:54;;;;;;;5.95;2.15;;;;;;;7.47;100.00;97392.63;6101831;19;20483;-73
2023/11/09 07:32:54;;;;;;;1.55;1.30;;;;;;;7.54;100.00;97391.88;6099861;19;20489;-73
2023/11/09 07:34:55;;;;;;;7.25;1.63;;;;;;;7.47;100.00;97389.09;6101345;19;20497;-73
2023/11/09 07:36:56;;;;;;;2.85;1.40;;;;;;;7.48;100.00;97396.16;6100495;19;20487;-73
2023/11/09 07:38:56;;;;;;;2.22;1.13;;;;;;;7.49;100.00;97382.00;6101319;19;20010;-73
2023/11/09 07:40:57;;;;;;;1.85;1.17;;;;;;;7.46;100.00;97384.75;6101102;19;20034;-73
2023/11/09 07:42:57;;;;;;;2.05;1.33;;;;;;;7.49;100.00;97384.75;6098301;19;20485;-73
2023/11/09 07:44:57;;;;;;;1.83;1.35;;;;;;;7.55;100.00;97387.94;6100829;19;20044;-73
2023/11/09 07:46:58;;;;;;;1.80;1.40;;;;;;;7.50;100.00;97388.31;6099011;19;20007;-73
2023/11/09 07:49:00;;;;;;;1.63;1.20;;;;;;;7.51;100.00;97398.13;6100885;19;20011;-73
2023/11/09 07:51:01;;;;;;;2.15;1.30;;;;;;;7.53;100.00;97395.78;6100802;19;20007;-73
2023/11/09 07:53:01;;;;;;;1.63;1.27;;;;;;;7.54;100.00;97389.13;6101318;19;20114;-73
2023/11/09 07:55:04;;;;;;;1.85;1.23;;;;;;;7.55;100.00;97380.47;6099600;19;20006;-73
2023/11/09 07:57:06;;;;;;;3.35;1.25;;;;;;;7.59;100.00;97394.25;6101368;19;20034;-73
2023/11/09 07:59:06;;;;;;;1.52;1.20;;;;;;;7.57;100.00;97382.84;6100133;19;20355;-73
2023/11/09 08:01:07;;;;;;;5.13;1.20;;;;;;;7.59;100.00;97399.75;6101665;19;20323;-73
2023/11/09 08:03:09;;;;;;;2.00;1.23;;;;;;;7.61;100.00;97402.91;6100489;19;20006;-73
2023/11/09 08:05:15;;;;;;;3.53;1.33;;;;;;;7.57;100.00;97402.13;6100089;19;20544;-73
2023/11/09 08:07:15;;;;;;;1.83;1.40;;;;;;;7.71;100.00;97415.97;6099661;19;20545;-73
2023/11/09 08:09:16;;;;;;;2.15;1.30;;;;;;;7.66;100.00;97401.78;6100801;19;20050;-73
2023/11/09 08:11:16;;;;;;;2.08;1.45;;;;;;;7.60;100.00;97409.59;6100395;19;20027;-73
2023/11/09 08:13:17;;;;;;;2.15;1.30;;;;;;;7.62;100.00;97392.72;6100165;19;20445;-73
2023/11/09 08:15:18;;;;;;;1.42;1.17;;;;;;;7.61;100.00;97397.41;6099779;19;20050;-73
2023/11/09 08:17:18;;;;;;;2.35;1.30;;;;;;;7.71;100.00;97390.41;6101359;19;20018;-73
2023/11/09 08:19:19;;;;;;;1.92;1.35;;;;;;;7.72;100.00;97387.25;6100451;19;20007;-73
2023/11/09 08:21:20;;;;;;;3.65;1.27;;;;;;;7.80;100.00;97393.59;6100438;19;20023;-73
2023/11/09 08:23:20;;;;;;;2.30;1.48;;;;;;;7.78;100.00;97395.94;6099471;19;20463;-73
2023/11/09 08:25:22;;;;;;;2.00;1.40;;;;;;;7.83;100.00;97407.38;6099728;19;20541;-73
2023/11/09 08:27:23;;;;;;;4.28;1.30;;;;;;;7.83;100.00;97390.84;6099812;19;20466;-73
2023/11/09 08:29:24;;;;;;;1.70;1.10;;;;;;;7.88;100.00;97403.47;6093423;19;20011;-73
2023/11/09 08:31:25;;;;;;;3.88;1.60;;;;;;;7.85;100.00;97407.75;6094212;19;20266;-73
2023/11/09 08:33:25;;;;;;;1.35;1.20;;;;;;;7.95;100.00;97397.22;6090644;19;20013;-73
2023/11/09 08:35:26;;;;;;;2.65;1.40;;;;;;;7.96;100.00;97407.06;6092252;19;20487;-73
2023/11/09 08:37:27;;;;;;;4.72;1.33;;;;;;;8.01;100.00;97410.19;6093420;19;20418;-74
2023/11/09 08:39:28;;;;;;;2.47;1.30;;;;;;;8.01;100.00;97414.94;6093912;19;20340;-73
2023/11/09 08:41:30;;;;;;;2.42;1.25;;;;;;;8.04;100.00;97403.16;6093019;19;20015;-73
2023/11/09 08:43:30;;;;;;;3.28;1.10;;;;;;;8.10;100.00;97415.34;6093054;19;20344;-73
2023/11/09 08:45:31;;;;;;;4.32;1.50;;;;;;;8.09;100.00;97411.81;6092183;19;20395;-73
2023/11/09 08:47:32;;;;;;;1.83;1.30;;;;;;;8.13;100.00;97417.34;6093252;19;20938;-73
2023/11/09 08:49:32;;;;;;;1.88;1.30;;;;;;;8.19;100.00;97418.53;6092635;19;20014;-74
2023/11/09 08:51:34;;;;;;;2.75;1.60;;;;;;;8.25;100.00;97419.75;6092792;19;20006;-73
2023/11/09 08:53:36;;;;;;;2.60;1.52;;;;;;;8.23;100.00;97411.09;6092403;19;20013;-73
2023/11/09 08:55:39;;;;;;;2.95;1.55;;;;;;;8.29;100.00;97423.31;6089691;19;20007;-73
2023/11/09 08:57:40;;;;;;;1.60;1.20;;;;;;;8.36;100.00;97411.56;6091972;19;19999;-73
2023/11/09 08:59:41;;;;;;;2.08;1.30;;;;;;;8.47;100.00;97415.13;6092232;19;20007;-73
2023/11/09 09:01:41;;;;;;;1.98;1.45;;;;;;;8.50;100.00;97402.53;6095420;19;20066;-73
2023/11/09 09:03:43;;;;;;;2.75;1.70;;;;;;;8.53;100.00;97407.28;6097636;19;20011;-73
2023/11/09 09:05:44;;;;;;;7.25;3.63;;;;;;;8.53;100.00;97404.53;6096803;19;20435;-74
2023/11/09 09:07:49;;;;;;;12.73;6.38;;;;;;;8.67;100.00;97399.81;6098322;19;20087;-74
2023/11/09 09:09:50;;;;;;;8.10;4.45;;;;;;;8.75;100.00;97408.09;6097859;19;20006;-73
2023/11/09 09:11:51;;;;;;;8.82;3.03;;;;;;;8.82;100.00;97403.38;6097856;19;20320;-73
2023/11/09 09:13:51;;;;;;;2.97;1.95;;;;;;;8.84;100.00;97411.25;6097424;19;20012;-73
2023/11/09 09:15:55;;;;;;;3.35;1.90;;;;;;;8.86;100.00;97403.41;6096044;19;20850;-73
2023/11/09 09:17:57;;;;;;;2.88;1.67;;;;;;;8.89;100.00;97410.88;6097108;19;20430;-73
2023/11/09 09:19:57;;;;;;;2.35;1.63;;;;;;;8.89;100.00;97408.91;6098187;19;20311;-73
2023/11/09 09:21:58;;;;;;;4.72;1.55;;;;;;;8.86;100.00;97412.47;6096766;19;20766;-73
2023/11/09 09:23:59;;;;;;;3.13;1.58;;;;;;;8.88;100.00;97425.84;6097378;19;20011;-73
2023/11/09 09:26:00;;;;;;;3.42;2.10;;;;;;;8.81;100.00;97421.09;6096839;19;20049;-74
2023/11/09 09:28:01;;;;;;;2.65;1.73;;;;;;;8.77;100.00;97428.59;6096663;19;20030;-73
2023/11/09 09:30:02;;;;;;;2.00;1.20;;;;;;;8.80;100.00;97429.78;6103678;19;20473;-73
2023/11/09 09:32:04;;;;;;;2.65;1.60;;;;;;;8.79;100.00;97429.00;6104184;19;20261;-73
2023/11/09 09:34:08;;;;;;;2.70;1.25;;;;;;;8.77;100.00;97434.13;6104154;19;20010;-73
2023/11/09 09:36:10;;;;;;;3.03;1.35;;;;;;;8.75;100.00;97428.19;6101933;19;20074;-74
2023/11/09 09:38:11;;;;;;;3.03;1.40;;;;;;;8.73;100.00;97428.59;6104624;19;20003;-73
2023/11/09 09:40:17;;;;;;;2.28;1.17;;;;;;;8.68;100.00;97426.19;6104307;19;20486;-73